Airport View

Enter AWOS ICAO identifier for current METAR.

ex. KFNL

K20V 221830Z AUTO 24003KT 10SM CLR 27/06 A3041 RMK AO2

22 Jul 2019 18:47

Frequency: 118.425

Phone: 970-724-9659

Other Area AWOS: KGNB - KC07 - K0CO - KEGE

TAF KEGE 221731Z 2218/2318 VRB05KT P6SM FEW100 SCT250 FM222200 25010KT P6SM FEW120 SCT200 FM230100 04008KT P6SM FEW100 SCT200 FM230300 VRB05KT P6SM FEW090 SCT200